sensor_id;sensor_type;location;lat;lon;timestamp;temperature;humidity
15916;DHT22;8057;47.830;-3.870;2022-08-01T00:01:27;19.00;99.90
15916;DHT22;8057;47.830;-3.870;2022-08-01T00:05:36;19.00;99.90
15916;DHT22;8057;47.830;-3.870;2022-08-01T00:09:47;18.90;99.90
15916;DHT22;8057;47.830;-3.870;2022-08-01T00:13:56;18.90;99.90
15916;DHT22;8057;47.830;-3.870;2022-08-01T00:18:06;18.90;99.90
15916;DHT22;8057;47.830;-3.870;2022-08-01T00:22:15;18.90;99.90
15916;DHT22;8057;47.830;-3.870;2022-08-01T00:26:26;18.90;99.90
15916;DHT22;8057;47.830;-3.870;2022-08-01T00:30:34;18.80;99.90
15916;DHT22;8057;47.830;-3.870;2022-08-01T00:34:43;18.80;99.90
15916;DHT22;8057;47.830;-3.870;2022-08-01T00:38:52;18.80;99.90
15916;DHT22;8057;47.830;-3.870;2022-08-01T00:43:03;18.80;99.90
15916;DHT22;8057;47.830;-3.870;2022-08-01T00:47:12;18.90;99.90
15916;DHT22;8057;47.830;-3.870;2022-08-01T00:51:21;18.90;99.90
15916;DHT22;8057;47.830;-3.870;2022-08-01T00:55:31;18.90;99.90
15916;DHT22;8057;47.830;-3.870;2022-08-01T00:59:41;18.90;99.90
15916;DHT22;8057;47.830;-3.870;2022-08-01T01:03:51;18.80;99.90
15916;DHT22;8057;47.830;-3.870;2022-08-01T01:08:14;18.80;99.90
15916;DHT22;8057;47.830;-3.870;2022-08-01T01:12:29;18.80;99.90
15916;DHT22;8057;47.830;-3.870;2022-08-01T01:16:46;18.80;99.90
15916;DHT22;8057;47.830;-3.870;2022-08-01T01:21:01;18.80;99.90
15916;DHT22;8057;47.830;-3.870;2022-08-01T01:30:10;18.80;99.90
15916;DHT22;8057;47.830;-3.870;2022-08-01T01:34:21;18.80;99.90
15916;DHT22;8057;47.830;-3.870;2022-08-01T01:38:36;18.70;99.90
15916;DHT22;8057;47.830;-3.870;2022-08-01T01:42:46;18.70;99.90
15916;DHT22;8057;47.830;-3.870;2022-08-01T01:46:59;18.80;99.90
15916;DHT22;8057;47.830;-3.870;2022-08-01T01:51:10;18.70;99.90
15916;DHT22;8057;47.830;-3.870;2022-08-01T01:55:22;18.70;99.90
15916;DHT22;8057;47.830;-3.870;2022-08-01T01:59:35;18.70;99.90
15916;DHT22;8057;47.830;-3.870;2022-08-01T02:03:46;18.70;99.90
15916;DHT22;8057;47.830;-3.870;2022-08-01T02:07:57;18.70;99.90
15916;DHT22;8057;47.830;-3.870;2022-08-01T02:12:07;18.70;99.90
15916;DHT22;8057;47.830;-3.870;2022-08-01T02:16:19;18.60;99.90
15916;DHT22;8057;47.830;-3.870;2022-08-01T02:20:31;18.60;99.90
15916;DHT22;8057;47.830;-3.870;2022-08-01T02:24:46;18.50;99.90
15916;DHT22;8057;47.830;-3.870;2022-08-01T02:29:01;18.50;99.90
15916;DHT22;8057;47.830;-3.870;2022-08-01T02:33:16;18.60;99.90
15916;DHT22;8057;47.830;-3.870;2022-08-01T02:37:28;18.50;99.90
15916;DHT22;8057;47.830;-3.870;2022-08-01T02:41:42;18.40;99.90
15916;DHT22;8057;47.830;-3.870;2022-08-01T02:45:53;18.40;99.90
15916;DHT22;8057;47.830;-3.870;2022-08-01T02:50:03;18.30;99.90
15916;DHT22;8057;47.830;-3.870;2022-08-01T02:54:17;18.30;99.90
15916;DHT22;8057;47.830;-3.870;2022-08-01T02:58:27;18.30;99.90
15916;DHT22;8057;47.830;-3.870;2022-08-01T03:02:38;18.30;99.90
15916;DHT22;8057;47.830;-3.870;2022-08-01T03:06:48;18.20;99.90
15916;DHT22;8057;47.830;-3.870;2022-08-01T03:11:02;18.20;99.90
15916;DHT22;8057;47.830;-3.870;2022-08-01T03:15:13;18.20;99.90
15916;DHT22;8057;47.830;-3.870;2022-08-01T03:19:24;18.20;99.90
15916;DHT22;8057;47.830;-3.870;2022-08-01T03:23:35;18.10;99.90
15916;DHT22;8057;47.830;-3.870;2022-08-01T03:27:50;18.20;99.90
15916;DHT22;8057;47.830;-3.870;2022-08-01T03:32:00;18.20;99.90
15916;DHT22;8057;47.830;-3.870;2022-08-01T03:36:11;18.20;99.90
15916;DHT22;8057;47.830;-3.870;2022-08-01T03:40:24;18.20;99.90
15916;DHT22;8057;47.830;-3.870;2022-08-01T03:44:36;18.10;99.90
15916;DHT22;8057;47.830;-3.870;2022-08-01T03:48:48;18.10;99.90
15916;DHT22;8057;47.830;-3.870;2022-08-01T03:52:57;18.20;99.90
15916;DHT22;8057;47.830;-3.870;2022-08-01T03:57:07;18.20;99.90
15916;DHT22;8057;47.830;-3.870;2022-08-01T04:01:38;18.10;99.90
15916;DHT22;8057;47.830;-3.870;2022-08-01T04:05:47;18.10;99.90
15916;DHT22;8057;47.830;-3.870;2022-08-01T04:09:56;18.10;99.90
15916;DHT22;8057;47.830;-3.870;2022-08-01T04:14:05;18.10;99.90
15916;DHT22;8057;47.830;-3.870;2022-08-01T04:18:16;18.10;99.90
15916;DHT22;8057;47.830;-3.870;2022-08-01T04:22:25;18.10;99.90
15916;DHT22;8057;47.830;-3.870;2022-08-01T04:26:36;18.00;99.90
15916;DHT22;8057;47.830;-3.870;2022-08-01T04:30:46;18.00;99.90
15916;DHT22;8057;47.830;-3.870;2022-08-01T04:35:01;17.90;99.90
15916;DHT22;8057;47.830;-3.870;2022-08-01T04:39:31;17.90;99.90
15916;DHT22;8057;47.830;-3.870;2022-08-01T04:43:57;17.90;99.90
15916;DHT22;8057;47.830;-3.870;2022-08-01T04:48:08;17.80;99.90
15916;DHT22;8057;47.830;-3.870;2022-08-01T04:52:19;17.90;99.90
15916;DHT22;8057;47.830;-3.870;2022-08-01T04:56:31;17.90;99.90
15916;DHT22;8057;47.830;-3.870;2022-08-01T05:00:41;17.90;99.90
15916;DHT22;8057;47.830;-3.870;2022-08-01T05:04:50;17.80;99.90
15916;DHT22;8057;47.830;-3.870;2022-08-01T05:09:00;17.80;99.90
15916;DHT22;8057;47.830;-3.870;2022-08-01T05:13:09;17.80;99.90
15916;DHT22;8057;47.830;-3.870;2022-08-01T05:17:18;17.90;99.90
15916;DHT22;8057;47.830;-3.870;2022-08-01T05:21:26;17.90;99.90
15916;DHT22;8057;47.830;-3.870;2022-08-01T05:25:37;17.80;99.90
15916;DHT22;8057;47.830;-3.870;2022-08-01T05:30:06;17.80;99.90
15916;DHT22;8057;47.830;-3.870;2022-08-01T05:34:15;17.80;99.90
15916;DHT22;8057;47.830;-3.870;2022-08-01T05:38:23;17.80;99.90
15916;DHT22;8057;47.830;-3.870;2022-08-01T05:42:34;17.90;99.90
15916;DHT22;8057;47.830;-3.870;2022-08-01T05:46:43;17.90;99.90
15916;DHT22;8057;47.830;-3.870;2022-08-01T05:50:51;17.90;99.90
15916;DHT22;8057;47.830;-3.870;2022-08-01T05:55:06;17.90;99.90
15916;DHT22;8057;47.830;-3.870;2022-08-01T05:59:16;18.00;99.90
15916;DHT22;8057;47.830;-3.870;2022-08-01T06:03:25;18.10;99.90
15916;DHT22;8057;47.830;-3.870;2022-08-01T06:07:38;18.20;99.90
15916;DHT22;8057;47.830;-3.870;2022-08-01T06:11:47;18.30;99.90
15916;DHT22;8057;47.830;-3.870;2022-08-01T06:15:57;18.30;99.90
15916;DHT22;8057;47.830;-3.870;2022-08-01T06:20:07;18.20;99.90
15916;DHT22;8057;47.830;-3.870;2022-08-01T06:24:16;18.30;99.90
15916;DHT22;8057;47.830;-3.870;2022-08-01T06:28:24;18.30;99.90
15916;DHT22;8057;47.830;-3.870;2022-08-01T06:32:35;18.20;99.90
15916;DHT22;8057;47.830;-3.870;2022-08-01T06:36:43;18.30;99.90
15916;DHT22;8057;47.830;-3.870;2022-08-01T06:40:52;18.30;99.90
15916;DHT22;8057;47.830;-3.870;2022-08-01T06:45:01;18.30;99.90
15916;DHT22;8057;47.830;-3.870;2022-08-01T06:49:12;18.30;99.90
15916;DHT22;8057;47.830;-3.870;2022-08-01T06:53:21;18.30;99.90
15916;DHT22;8057;47.830;-3.870;2022-08-01T06:57:30;18.30;99.90
15916;DHT22;8057;47.830;-3.870;2022-08-01T07:01:39;18.50;99.90
15916;DHT22;8057;47.830;-3.870;2022-08-01T07:05:49;18.50;99.90
15916;DHT22;8057;47.830;-3.870;2022-08-01T07:09:58;18.60;99.90
15916;DHT22;8057;47.830;-3.870;2022-08-01T07:14:06;18.60;99.90
15916;DHT22;8057;47.830;-3.870;2022-08-01T07:18:15;18.60;99.90
15916;DHT22;8057;47.830;-3.870;2022-08-01T07:22:25;18.80;99.90
15916;DHT22;8057;47.830;-3.870;2022-08-01T07:26:35;19.00;99.90
15916;DHT22;8057;47.830;-3.870;2022-08-01T07:30:44;19.10;99.90
15916;DHT22;8057;47.830;-3.870;2022-08-01T07:34:53;19.30;99.90
15916;DHT22;8057;47.830;-3.870;2022-08-01T07:39:03;19.20;99.90
15916;DHT22;8057;47.830;-3.870;2022-08-01T07:43:12;19.30;99.90
15916;DHT22;8057;47.830;-3.870;2022-08-01T07:47:24;19.40;99.90
15916;DHT22;8057;47.830;-3.870;2022-08-01T07:51:33;19.50;99.90
15916;DHT22;8057;47.830;-3.870;2022-08-01T07:55:43;19.60;99.90
15916;DHT22;8057;47.830;-3.870;2022-08-01T07:59:53;19.50;99.90
15916;DHT22;8057;47.830;-3.870;2022-08-01T08:04:02;19.50;99.90
15916;DHT22;8057;47.830;-3.870;2022-08-01T08:08:11;19.50;99.90
15916;DHT22;8057;47.830;-3.870;2022-08-01T08:12:22;19.40;99.90
15916;DHT22;8057;47.830;-3.870;2022-08-01T08:16:35;19.40;99.90
15916;DHT22;8057;47.830;-3.870;2022-08-01T08:20:45;19.30;99.90
15916;DHT22;8057;47.830;-3.870;2022-08-01T08:24:56;19.40;99.90
15916;DHT22;8057;47.830;-3.870;2022-08-01T08:29:08;19.50;99.90
15916;DHT22;8057;47.830;-3.870;2022-08-01T08:33:17;19.50;99.90
15916;DHT22;8057;47.830;-3.870;2022-08-01T08:37:26;19.60;99.90
15916;DHT22;8057;47.830;-3.870;2022-08-01T08:41:44;19.60;99.90
15916;DHT22;8057;47.830;-3.870;2022-08-01T08:45:57;19.70;99.90
15916;DHT22;8057;47.830;-3.870;2022-08-01T08:50:07;19.70;99.90
15916;DHT22;8057;47.830;-3.870;2022-08-01T08:54:16;19.70;99.90
15916;DHT22;8057;47.830;-3.870;2022-08-01T08:58:27;19.90;99.90
15916;DHT22;8057;47.830;-3.870;2022-08-01T09:02:41;20.00;99.90
15916;DHT22;8057;47.830;-3.870;2022-08-01T09:06:51;20.10;99.90
15916;DHT22;8057;47.830;-3.870;2022-08-01T09:11:00;20.10;99.90
15916;DHT22;8057;47.830;-3.870;2022-08-01T09:15:09;20.10;99.90
15916;DHT22;8057;47.830;-3.870;2022-08-01T09:19:20;20.00;99.90
15916;DHT22;8057;47.830;-3.870;2022-08-01T09:23:49;20.00;99.90
15916;DHT22;8057;47.830;-3.870;2022-08-01T09:28:04;20.00;99.90
15916;DHT22;8057;47.830;-3.870;2022-08-01T09:32:14;20.00;99.90
15916;DHT22;8057;47.830;-3.870;2022-08-01T09:36:25;19.90;99.90
15916;DHT22;8057;47.830;-3.870;2022-08-01T09:40:45;20.00;99.90
15916;DHT22;8057;47.830;-3.870;2022-08-01T09:44:55;20.10;99.90
15916;DHT22;8057;47.830;-3.870;2022-08-01T09:49:05;20.20;99.90
15916;DHT22;8057;47.830;-3.870;2022-08-01T09:53:18;20.30;99.90
15916;DHT22;8057;47.830;-3.870;2022-08-01T09:57:36;20.40;99.90
15916;DHT22;8057;47.830;-3.870;2022-08-01T10:01:47;20.60;99.90
15916;DHT22;8057;47.830;-3.870;2022-08-01T10:05:56;20.70;99.90
15916;DHT22;8057;47.830;-3.870;2022-08-01T10:10:12;20.70;99.90
15916;DHT22;8057;47.830;-3.870;2022-08-01T10:14:22;20.80;99.90
15916;DHT22;8057;47.830;-3.870;2022-08-01T10:18:34;21.00;99.90
15916;DHT22;8057;47.830;-3.870;2022-08-01T10:22:44;21.00;99.90
15916;DHT22;8057;47.830;-3.870;2022-08-01T10:26:57;20.90;99.90
15916;DHT22;8057;47.830;-3.870;2022-08-01T10:31:17;20.90;99.90
15916;DHT22;8057;47.830;-3.870;2022-08-01T10:35:37;21.20;99.90
15916;DHT22;8057;47.830;-3.870;2022-08-01T10:39:54;21.20;99.90
15916;DHT22;8057;47.830;-3.870;2022-08-01T10:44:26;21.60;99.90
15916;DHT22;8057;47.830;-3.870;2022-08-01T10:48:43;21.80;99.90
15916;DHT22;8057;47.830;-3.870;2022-08-01T10:53:12;21.80;99.90
15916;DHT22;8057;47.830;-3.870;2022-08-01T10:57:42;21.80;99.90
15916;DHT22;8057;47.830;-3.870;2022-08-01T11:02:02;22.00;99.90
15916;DHT22;8057;47.830;-3.870;2022-08-01T11:06:16;22.50;99.90
15916;DHT22;8057;47.830;-3.870;2022-08-01T11:10:30;22.60;99.90
15916;DHT22;8057;47.830;-3.870;2022-08-01T11:15:18;22.90;99.90
15916;DHT22;8057;47.830;-3.870;2022-08-01T11:20:06;23.10;99.90
15916;DHT22;8057;47.830;-3.870;2022-08-01T11:24:15;23.30;99.90
15916;DHT22;8057;47.830;-3.870;2022-08-01T11:28:25;23.50;99.90
15916;DHT22;8057;47.830;-3.870;2022-08-01T11:32:46;23.30;99.90
15916;DHT22;8057;47.830;-3.870;2022-08-01T11:37:26;23.50;99.90
15916;DHT22;8057;47.830;-3.870;2022-08-01T11:41:37;23.30;99.90
15916;DHT22;8057;47.830;-3.870;2022-08-01T11:45:49;23.70;99.90
15916;DHT22;8057;47.830;-3.870;2022-08-01T11:50:00;24.10;99.90
15916;DHT22;8057;47.830;-3.870;2022-08-01T11:54:10;24.50;99.90
15916;DHT22;8057;47.830;-3.870;2022-08-01T11:58:22;24.20;99.90
15916;DHT22;8057;47.830;-3.870;2022-08-01T12:02:37;23.60;99.90
15916;DHT22;8057;47.830;-3.870;2022-08-01T12:06:46;23.50;99.90
15916;DHT22;8057;47.830;-3.870;2022-08-01T12:10:58;23.60;99.90
15916;DHT22;8057;47.830;-3.870;2022-08-01T12:15:09;23.60;99.90
15916;DHT22;8057;47.830;-3.870;2022-08-01T12:19:20;23.50;99.90
15916;DHT22;8057;47.830;-3.870;2022-08-01T12:23:29;23.80;99.90
15916;DHT22;8057;47.830;-3.870;2022-08-01T12:27:40;23.70;99.90
15916;DHT22;8057;47.830;-3.870;2022-08-01T12:31:50;23.80;99.90
15916;DHT22;8057;47.830;-3.870;2022-08-01T12:35:58;24.10;99.90
15916;DHT22;8057;47.830;-3.870;2022-08-01T12:40:15;24.20;99.90
15916;DHT22;8057;47.830;-3.870;2022-08-01T12:44:26;24.10;99.90
15916;DHT22;8057;47.830;-3.870;2022-08-01T12:48:36;24.30;99.90
15916;DHT22;8057;47.830;-3.870;2022-08-01T12:52:46;24.70;99.90
15916;DHT22;8057;47.830;-3.870;2022-08-01T12:56:55;24.60;99.90
15916;DHT22;8057;47.830;-3.870;2022-08-01T13:01:08;24.40;99.90
15916;DHT22;8057;47.830;-3.870;2022-08-01T13:05:17;24.00;99.90
15916;DHT22;8057;47.830;-3.870;2022-08-01T13:09:26;24.00;99.90
15916;DHT22;8057;47.830;-3.870;2022-08-01T13:13:39;24.00;99.90
15916;DHT22;8057;47.830;-3.870;2022-08-01T13:17:50;24.20;99.90
15916;DHT22;8057;47.830;-3.870;2022-08-01T13:21:59;23.90;99.90
15916;DHT22;8057;47.830;-3.870;2022-08-01T13:26:09;24.20;99.90
15916;DHT22;8057;47.830;-3.870;2022-08-01T13:30:19;24.10;99.90
15916;DHT22;8057;47.830;-3.870;2022-08-01T13:34:34;23.80;99.90
15916;DHT22;8057;47.830;-3.870;2022-08-01T13:38:43;23.40;99.90
15916;DHT22;8057;47.830;-3.870;2022-08-01T13:43:09;23.10;99.90
15916;DHT22;8057;47.830;-3.870;2022-08-01T13:47:18;23.30;99.90
15916;DHT22;8057;47.830;-3.870;2022-08-01T13:51:39;23.70;99.90
15916;DHT22;8057;47.830;-3.870;2022-08-01T13:55:48;23.70;99.90
15916;DHT22;8057;47.830;-3.870;2022-08-01T13:59:58;23.70;99.90
15916;DHT22;8057;47.830;-3.870;2022-08-01T14:04:07;24.00;99.90
15916;DHT22;8057;47.830;-3.870;2022-08-01T14:08:17;23.70;99.90
15916;DHT22;8057;47.830;-3.870;2022-08-01T14:12:26;23.10;99.90
15916;DHT22;8057;47.830;-3.870;2022-08-01T14:16:36;23.20;99.90
15916;DHT22;8057;47.830;-3.870;2022-08-01T14:20:46;23.10;99.90
15916;DHT22;8057;47.830;-3.870;2022-08-01T14:25:01;23.30;99.90
15916;DHT22;8057;47.830;-3.870;2022-08-01T14:29:11;23.40;99.90
15916;DHT22;8057;47.830;-3.870;2022-08-01T14:33:20;23.30;99.90
15916;DHT22;8057;47.830;-3.870;2022-08-01T14:37:28;23.10;99.90
15916;DHT22;8057;47.830;-3.870;2022-08-01T14:41:45;23.10;99.90
15916;DHT22;8057;47.830;-3.870;2022-08-01T14:45:54;23.20;99.90
15916;DHT22;8057;47.830;-3.870;2022-08-01T14:50:05;22.90;99.90
15916;DHT22;8057;47.830;-3.870;2022-08-01T14:54:14;23.00;99.90
15916;DHT22;8057;47.830;-3.870;2022-08-01T14:58:34;23.10;99.90
15916;DHT22;8057;47.830;-3.870;2022-08-01T15:02:43;22.70;99.90
15916;DHT22;8057;47.830;-3.870;2022-08-01T15:06:52;22.70;99.90
15916;DHT22;8057;47.830;-3.870;2022-08-01T15:11:01;22.80;99.90
15916;DHT22;8057;47.830;-3.870;2022-08-01T15:15:12;23.10;99.90
15916;DHT22;8057;47.830;-3.870;2022-08-01T15:19:20;23.30;99.90
15916;DHT22;8057;47.830;-3.870;2022-08-01T15:23:29;23.70;99.90
15916;DHT22;8057;47.830;-3.870;2022-08-01T15:27:38;23.70;99.90
15916;DHT22;8057;47.830;-3.870;2022-08-01T15:31:48;23.30;99.90
15916;DHT22;8057;47.830;-3.870;2022-08-01T15:35:57;23.30;99.90
15916;DHT22;8057;47.830;-3.870;2022-08-01T15:40:07;22.90;99.90
15916;DHT22;8057;47.830;-3.870;2022-08-01T15:44:16;22.60;99.90
15916;DHT22;8057;47.830;-3.870;2022-08-01T15:48:28;22.90;99.90
15916;DHT22;8057;47.830;-3.870;2022-08-01T15:52:37;23.20;99.90
15916;DHT22;8057;47.830;-3.870;2022-08-01T15:56:46;23.10;99.90
15916;DHT22;8057;47.830;-3.870;2022-08-01T16:00:55;22.80;99.90
15916;DHT22;8057;47.830;-3.870;2022-08-01T16:05:06;23.10;99.90
15916;DHT22;8057;47.830;-3.870;2022-08-01T16:09:15;23.30;99.90
15916;DHT22;8057;47.830;-3.870;2022-08-01T16:13:30;23.50;99.90
15916;DHT22;8057;47.830;-3.870;2022-08-01T16:17:39;23.40;99.90
15916;DHT22;8057;47.830;-3.870;2022-08-01T16:21:52;23.30;99.90
15916;DHT22;8057;47.830;-3.870;2022-08-01T16:26:00;23.40;99.90
15916;DHT22;8057;47.830;-3.870;2022-08-01T16:30:10;23.50;99.90
15916;DHT22;8057;47.830;-3.870;2022-08-01T16:34:19;23.20;99.90
15916;DHT22;8057;47.830;-3.870;2022-08-01T16:38:31;23.30;99.90
15916;DHT22;8057;47.830;-3.870;2022-08-01T16:42:39;23.40;99.90
15916;DHT22;8057;47.830;-3.870;2022-08-01T16:46:48;23.40;99.90
15916;DHT22;8057;47.830;-3.870;2022-08-01T16:50:57;23.20;99.90
15916;DHT22;8057;47.830;-3.870;2022-08-01T16:55:09;22.90;99.90
15916;DHT22;8057;47.830;-3.870;2022-08-01T16:59:18;22.70;99.90
15916;DHT22;8057;47.830;-3.870;2022-08-01T17:03:27;22.80;99.90
15916;DHT22;8057;47.830;-3.870;2022-08-01T17:07:56;22.60;99.90
15916;DHT22;8057;47.830;-3.870;2022-08-01T17:12:06;22.70;99.90
15916;DHT22;8057;47.830;-3.870;2022-08-01T17:16:16;22.70;99.90
15916;DHT22;8057;47.830;-3.870;2022-08-01T17:20:25;22.80;99.90
15916;DHT22;8057;47.830;-3.870;2022-08-01T17:24:34;22.90;99.90
15916;DHT22;8057;47.830;-3.870;2022-08-01T17:28:44;22.90;99.90
15916;DHT22;8057;47.830;-3.870;2022-08-01T17:32:53;22.90;99.90
15916;DHT22;8057;47.830;-3.870;2022-08-01T17:37:02;22.80;99.90
15916;DHT22;8057;47.830;-3.870;2022-08-01T17:41:11;22.70;99.90
15916;DHT22;8057;47.830;-3.870;2022-08-01T17:45:21;22.60;99.90
15916;DHT22;8057;47.830;-3.870;2022-08-01T17:49:34;22.60;99.90
15916;DHT22;8057;47.830;-3.870;2022-08-01T17:54:03;22.80;99.90
15916;DHT22;8057;47.830;-3.870;2022-08-01T17:58:12;23.00;99.90
15916;DHT22;8057;47.830;-3.870;2022-08-01T18:02:40;22.90;99.90
15916;DHT22;8057;47.830;-3.870;2022-08-01T18:06:49;23.00;99.90
15916;DHT22;8057;47.830;-3.870;2022-08-01T18:11:16;22.90;99.90
15916;DHT22;8057;47.830;-3.870;2022-08-01T18:15:27;22.80;99.90
15916;DHT22;8057;47.830;-3.870;2022-08-01T18:19:41;22.70;99.90
15916;DHT22;8057;47.830;-3.870;2022-08-01T18:23:52;22.60;99.90
15916;DHT22;8057;47.830;-3.870;2022-08-01T18:28:01;22.70;99.90
15916;DHT22;8057;47.830;-3.870;2022-08-01T18:32:30;22.60;99.90
15916;DHT22;8057;47.830;-3.870;2022-08-01T18:36:41;22.50;99.90
15916;DHT22;8057;47.830;-3.870;2022-08-01T18:40:51;22.40;99.90
15916;DHT22;8057;47.830;-3.870;2022-08-01T18:45:00;22.20;99.90
15916;DHT22;8057;47.830;-3.870;2022-08-01T18:49:10;22.00;99.90
15916;DHT22;8057;47.830;-3.870;2022-08-01T18:53:21;21.70;99.90
15916;DHT22;8057;47.830;-3.870;2022-08-01T18:57:31;21.50;99.90
15916;DHT22;8057;47.830;-3.870;2022-08-01T19:01:40;21.40;99.90
15916;DHT22;8057;47.830;-3.870;2022-08-01T19:05:49;21.30;99.90
15916;DHT22;8057;47.830;-3.870;2022-08-01T19:09:59;21.10;99.90
15916;DHT22;8057;47.830;-3.870;2022-08-01T19:14:08;21.00;99.90
15916;DHT22;8057;47.830;-3.870;2022-08-01T19:18:17;20.90;99.90
15916;DHT22;8057;47.830;-3.870;2022-08-01T19:22:25;20.80;99.90
15916;DHT22;8057;47.830;-3.870;2022-08-01T19:26:36;20.70;99.90
15916;DHT22;8057;47.830;-3.870;2022-08-01T19:30:47;20.70;99.90
15916;DHT22;8057;47.830;-3.870;2022-08-01T19:35:03;20.50;99.90
15916;DHT22;8057;47.830;-3.870;2022-08-01T19:39:12;20.40;99.90
15916;DHT22;8057;47.830;-3.870;2022-08-01T19:43:25;20.30;99.90
15916;DHT22;8057;47.830;-3.870;2022-08-01T19:47:34;20.20;99.90
15916;DHT22;8057;47.830;-3.870;2022-08-01T19:52:03;20.10;99.90
15916;DHT22;8057;47.830;-3.870;2022-08-01T19:56:13;20.00;99.90
15916;DHT22;8057;47.830;-3.870;2022-08-01T20:00:24;20.00;99.90
15916;DHT22;8057;47.830;-3.870;2022-08-01T20:04:34;20.00;99.90
15916;DHT22;8057;47.830;-3.870;2022-08-01T20:08:44;20.10;99.90
15916;DHT22;8057;47.830;-3.870;2022-08-01T20:12:56;20.00;99.90
15916;DHT22;8057;47.830;-3.870;2022-08-01T20:17:06;20.00;99.90
15916;DHT22;8057;47.830;-3.870;2022-08-01T20:21:17;19.90;99.90
15916;DHT22;8057;47.830;-3.870;2022-08-01T20:25:28;19.90;99.90
15916;DHT22;8057;47.830;-3.870;2022-08-01T20:29:49;19.80;99.90
15916;DHT22;8057;47.830;-3.870;2022-08-01T20:34:00;19.90;99.90
15916;DHT22;8057;47.830;-3.870;2022-08-01T20:38:10;20.00;99.90
15916;DHT22;8057;47.830;-3.870;2022-08-01T20:42:20;20.00;99.90
15916;DHT22;8057;47.830;-3.870;2022-08-01T20:46:30;20.00;99.90
15916;DHT22;8057;47.830;-3.870;2022-08-01T20:50:43;20.00;99.90
15916;DHT22;8057;47.830;-3.870;2022-08-01T20:55:08;19.90;99.90
15916;DHT22;8057;47.830;-3.870;2022-08-01T20:59:20;20.00;99.90
15916;DHT22;8057;47.830;-3.870;2022-08-01T21:04:02;19.90;99.90
15916;DHT22;8057;47.830;-3.870;2022-08-01T21:08:18;19.80;99.90
15916;DHT22;8057;47.830;-3.870;2022-08-01T21:12:41;19.70;99.90
15916;DHT22;8057;47.830;-3.870;2022-08-01T21:16:56;19.60;99.90
15916;DHT22;8057;47.830;-3.870;2022-08-01T21:21:13;19.50;99.90
15916;DHT22;8057;47.830;-3.870;2022-08-01T21:25:26;19.50;99.90
15916;DHT22;8057;47.830;-3.870;2022-08-01T21:29:39;19.40;99.90
15916;DHT22;8057;47.830;-3.870;2022-08-01T21:33:48;19.30;99.90
15916;DHT22;8057;47.830;-3.870;2022-08-01T21:38:09;19.30;99.90
15916;DHT22;8057;47.830;-3.870;2022-08-01T21:42:20;19.10;99.90
15916;DHT22;8057;47.830;-3.870;2022-08-01T21:46:30;19.10;99.90
15916;DHT22;8057;47.830;-3.870;2022-08-01T21:50:46;19.00;99.90
15916;DHT22;8057;47.830;-3.870;2022-08-01T21:55:03;19.00;99.90
15916;DHT22;8057;47.830;-3.870;2022-08-01T21:59:29;18.90;99.90
15916;DHT22;8057;47.830;-3.870;2022-08-01T22:03:44;18.80;99.90
15916;DHT22;8057;47.830;-3.870;2022-08-01T22:07:58;18.70;99.90
15916;DHT22;8057;47.830;-3.870;2022-08-01T22:12:09;18.60;99.90
15916;DHT22;8057;47.830;-3.870;2022-08-01T22:16:26;18.50;99.90
15916;DHT22;8057;47.830;-3.870;2022-08-01T22:20:38;18.50;99.90
15916;DHT22;8057;47.830;-3.870;2022-08-01T22:24:48;18.50;99.90
15916;DHT22;8057;47.830;-3.870;2022-08-01T22:28:58;18.40;99.90
15916;DHT22;8057;47.830;-3.870;2022-08-01T22:33:08;18.40;99.90
15916;DHT22;8057;47.830;-3.870;2022-08-01T22:37:24;18.40;99.90
15916;DHT22;8057;47.830;-3.870;2022-08-01T22:41:57;18.40;99.90
15916;DHT22;8057;47.830;-3.870;2022-08-01T22:46:23;18.40;99.90
15916;DHT22;8057;47.830;-3.870;2022-08-01T22:50:37;18.30;99.90
15916;DHT22;8057;47.830;-3.870;2022-08-01T22:54:49;18.20;99.90
15916;DHT22;8057;47.830;-3.870;2022-08-01T22:59:00;18.10;99.90
15916;DHT22;8057;47.830;-3.870;2022-08-01T23:03:18;18.10;99.90
15916;DHT22;8057;47.830;-3.870;2022-08-01T23:07:32;18.00;99.90
15916;DHT22;8057;47.830;-3.870;2022-08-01T23:11:41;18.10;99.90
15916;DHT22;8057;47.830;-3.870;2022-08-01T23:15:51;18.00;99.90
15916;DHT22;8057;47.830;-3.870;2022-08-01T23:20:02;18.00;99.90
15916;DHT22;8057;47.830;-3.870;2022-08-01T23:24:13;17.90;99.90
15916;DHT22;8057;47.830;-3.870;2022-08-01T23:28:22;17.90;99.90
15916;DHT22;8057;47.830;-3.870;2022-08-01T23:32:31;17.90;99.90
15916;DHT22;8057;47.830;-3.870;2022-08-01T23:36:40;17.90;99.90
15916;DHT22;8057;47.830;-3.870;2022-08-01T23:40:51;17.80;99.90
15916;DHT22;8057;47.830;-3.870;2022-08-01T23:45:00;17.80;99.90
15916;DHT22;8057;47.830;-3.870;2022-08-01T23:49:08;17.80;99.90
15916;DHT22;8057;47.830;-3.870;2022-08-01T23:53:17;17.80;99.90
15916;DHT22;8057;47.830;-3.870;2022-08-01T23:57:29;17.80;99.90
